createdAt,value
2019-05-03T00:00:09.843Z,0
2019-05-03T00:01:12.855Z,0
2019-05-03T00:02:12.261Z,0
2019-05-03T00:03:12.033Z,0
2019-05-03T00:04:11.834Z,0
2019-05-03T00:05:12.489Z,0
2019-05-03T00:06:12.052Z,0
2019-05-03T00:07:11.681Z,0
2019-05-03T00:08:12.618Z,0
2019-05-03T00:09:11.893Z,0
2019-05-03T00:10:10.015Z,0
2019-05-03T00:11:09.494Z,0
2019-05-03T00:12:12.629Z,0
2019-05-03T00:13:12.450Z,0
2019-05-03T00:14:12.418Z,0
2019-05-03T00:15:11.998Z,0
2019-05-03T00:16:09.868Z,0
2019-05-03T00:17:11.599Z,0
2019-05-03T00:18:11.420Z,0
2019-05-03T00:19:12.779Z,0
2019-05-03T00:20:11.762Z,0
2019-05-03T00:21:11.750Z,0
2019-05-03T00:22:12.342Z,0
2019-05-03T00:23:11.987Z,0
2019-05-03T00:24:09.601Z,0
2019-05-03T00:25:17.656Z,0
2019-05-03T00:26:11.831Z,0
2019-05-03T00:27:12.464Z,0
2019-05-03T00:28:13.177Z,0
2019-05-03T00:29:09.081Z,0
2019-05-03T00:30:11.874Z,0
2019-05-03T00:31:12.434Z,0
2019-05-03T00:32:12.442Z,0
2019-05-03T00:33:11.741Z,0
2019-05-03T00:34:09.420Z,0
2019-05-03T00:35:12.006Z,0
2019-05-03T00:36:11.552Z,0
2019-05-03T00:37:12.574Z,0
2019-05-03T00:38:09.268Z,0
2019-05-03T00:39:12.188Z,0
2019-05-03T00:40:12.232Z,0
2019-05-03T00:41:12.168Z,0
2019-05-03T00:42:11.832Z,0
2019-05-03T00:43:11.521Z,0
2019-05-03T00:44:09.378Z,0
2019-05-03T00:45:09.477Z,0
2019-05-03T00:46:12.596Z,0
2019-05-03T00:47:09.462Z,0
2019-05-03T00:48:12.383Z,0
2019-05-03T00:49:11.956Z,0
2019-05-03T00:50:11.904Z,0
2019-05-03T00:51:11.468Z,0
2019-05-03T00:52:09.425Z,0
2019-05-03T00:53:11.575Z,0
2019-05-03T00:54:09.221Z,0
2019-05-03T00:55:22.054Z,0
2019-05-03T00:56:12.227Z,0
2019-05-03T00:57:09.570Z,0
2019-05-03T00:58:11.643Z,0
2019-05-03T00:59:09.353Z,0
2019-05-03T01:00:12.344Z,0
2019-05-03T01:01:11.580Z,0
2019-05-03T01:02:11.341Z,0
2019-05-03T01:03:09.411Z,0
2019-05-03T01:04:11.794Z,0
2019-05-03T01:05:11.808Z,0
2019-05-03T01:06:09.184Z,0
2019-05-03T01:07:11.557Z,0
2019-05-03T01:08:09.151Z,0
2019-05-03T01:09:11.738Z,0
2019-05-03T01:10:11.709Z,0
2019-05-03T01:11:09.292Z,0
2019-05-03T01:12:09.078Z,0
2019-05-03T01:13:12.324Z,0
2019-05-03T01:14:11.591Z,0
2019-05-03T01:15:09.220Z,0
2019-05-03T01:16:11.603Z,0
2019-05-03T01:17:11.533Z,0
2019-05-03T01:18:08.822Z,0
2019-05-03T01:19:09.702Z,0
2019-05-03T01:20:11.837Z,0
2019-05-03T01:21:09.173Z,0
2019-05-03T01:22:09.125Z,0
2019-05-03T01:23:09.210Z,0
2019-05-03T01:24:08.862Z,0
2019-05-03T01:25:11.915Z,0
2019-05-03T01:26:09.615Z,0
2019-05-03T01:27:09.139Z,0
2019-05-03T01:28:08.722Z,0
2019-05-03T01:29:09.852Z,0
2019-05-03T01:30:11.500Z,0
2019-05-03T01:31:09.454Z,0
2019-05-03T01:32:11.471Z,0
2019-05-03T01:33:11.997Z,0
2019-05-03T01:34:09.514Z,0
2019-05-03T01:35:12.146Z,0
2019-05-03T01:36:11.713Z,0
2019-05-03T01:37:11.812Z,0
2019-05-03T01:38:11.558Z,0
2019-05-03T01:39:09.285Z,0
2019-05-03T01:40:09.400Z,0
2019-05-03T01:41:08.755Z,0
2019-05-03T01:42:11.811Z,0
2019-05-03T01:43:11.540Z,0
2019-05-03T01:44:08.838Z,0
2019-05-03T01:45:09.056Z,0
2019-05-03T01:46:11.861Z,0
2019-05-03T01:47:09.439Z,0
2019-05-03T01:48:09.166Z,0
2019-05-03T01:49:08.730Z,0
2019-05-03T01:50:12.076Z,0
2019-05-03T01:51:11.692Z,0
2019-05-03T01:52:09.386Z,0
2019-05-03T01:53:09.080Z,0
2019-05-03T01:54:08.888Z,0
2019-05-03T01:55:13.905Z,0
2019-05-03T01:56:11.791Z,0
2019-05-03T01:57:09.356Z,0
2019-05-03T01:58:09.012Z,0
2019-05-03T01:59:09.017Z,0
2019-05-03T02:00:11.710Z,0
2019-05-03T02:01:09.982Z,0
2019-05-03T02:02:12.521Z,0
2019-05-03T02:03:08.770Z,0
2019-05-03T02:04:09.852Z,0
2019-05-03T02:05:09.682Z,0
2019-05-03T02:06:09.536Z,0
2019-05-03T02:07:09.429Z,0
2019-05-03T02:08:09.224Z,0
2019-05-03T02:09:08.775Z,0
2019-05-03T02:10:11.772Z,0
2019-05-03T02:11:09.384Z,0
2019-05-03T02:12:09.288Z,0
2019-05-03T02:13:08.810Z,0
2019-05-03T02:14:08.832Z,0
2019-05-03T02:15:11.670Z,0
2019-05-03T02:16:11.483Z,0
2019-05-03T02:17:08.944Z,0
2019-05-03T02:18:13.013Z,0
2019-05-03T02:19:09.600Z,0
2019-05-03T02:20:09.428Z,0
2019-05-03T02:21:08.834Z,0
2019-05-03T02:22:11.874Z,0
2019-05-03T02:23:11.736Z,0
2019-05-03T02:24:11.634Z,0
2019-05-03T02:25:08.951Z,0
2019-05-03T02:26:11.751Z,0
2019-05-03T02:27:09.271Z,0
2019-05-03T02:28:09.118Z,0
2019-05-03T02:29:08.942Z,0
2019-05-03T02:30:13.640Z,0
2019-05-03T02:31:13.378Z,0
2019-05-03T02:32:12.917Z,0
2019-05-03T02:33:13.336Z,0
2019-05-03T02:34:12.495Z,0
2019-05-03T02:35:09.956Z,0
2019-05-03T02:36:13.284Z,0
2019-05-03T02:37:13.580Z,0
2019-05-03T02:38:12.945Z,0
2019-05-03T02:39:10.062Z,0
2019-05-03T02:40:12.957Z,0
2019-05-03T02:41:13.192Z,0
2019-05-03T02:42:20.971Z,0
2019-05-03T02:43:10.270Z,0
2019-05-03T02:44:10.994Z,0
2019-05-03T02:45:10.701Z,0
2019-05-03T02:46:10.485Z,0
2019-05-03T02:47:10.381Z,0
2019-05-03T02:48:10.762Z,0
2019-05-03T02:49:11.017Z,0
2019-05-03T02:50:10.587Z,0
2019-05-03T02:51:09.039Z,0
2019-05-03T02:52:11.288Z,0
2019-05-03T02:53:10.465Z,0
2019-05-03T02:54:10.307Z,0
2019-05-03T02:55:10.811Z,0
2019-05-03T02:56:30.931Z,0
2019-05-03T02:57:10.941Z,0
2019-05-03T02:58:10.393Z,0
2019-05-03T02:59:10.872Z,0
2019-05-03T03:00:09.898Z,0
2019-05-03T03:01:09.021Z,0
2019-05-03T03:02:11.017Z,0
2019-05-03T03:03:10.347Z,0
2019-05-03T03:04:10.111Z,0
2019-05-03T03:05:10.227Z,0
2019-05-03T03:06:09.301Z,0
2019-05-03T03:07:10.329Z,0
2019-05-03T03:08:10.614Z,0
2019-05-03T03:09:10.137Z,0
2019-05-03T03:10:10.119Z,0
2019-05-03T03:11:08.849Z,0
2019-05-03T03:12:10.741Z,0
2019-05-03T03:13:10.578Z,0
2019-05-03T03:14:10.354Z,0
2019-05-03T03:15:10.785Z,0
2019-05-03T03:16:09.393Z,0
2019-05-03T03:17:09.079Z,0
2019-05-03T03:18:08.735Z,0
2019-05-03T03:19:09.272Z,0
2019-05-03T03:20:10.286Z,0
2019-05-03T03:21:08.272Z,0
2019-05-03T03:22:10.558Z,0
2019-05-03T03:23:08.534Z,0
2019-05-03T03:24:10.737Z,0
2019-05-03T03:25:10.159Z,0
2019-05-03T03:26:08.700Z,0
2019-05-03T03:27:10.064Z,0
2019-05-03T03:28:10.020Z,0
2019-05-03T03:29:10.317Z,0
2019-05-03T03:30:10.219Z,0
2019-05-03T03:31:10.957Z,0
2019-05-03T03:32:18.066Z,0
2019-05-03T03:33:17.135Z,5
2019-05-03T03:34:17.857Z,5
2019-05-03T03:35:31.899Z,5
2019-05-03T03:37:15.171Z,10
2019-05-03T03:37:28.368Z,10
2019-05-03T03:38:28.350Z,5
2019-05-03T03:39:28.292Z,5
2019-05-03T03:40:27.869Z,5
2019-05-03T03:41:27.400Z,10
2019-05-03T03:42:27.615Z,10
2019-05-03T03:43:26.011Z,10
2019-05-03T03:44:27.918Z,10
2019-05-03T03:45:27.857Z,15
2019-05-03T03:46:27.636Z,15
2019-05-03T03:47:29.526Z,15
2019-05-03T03:48:26.497Z,15
2019-05-03T03:49:26.148Z,15
2019-05-03T03:50:28.210Z,20
2019-05-03T03:51:26.261Z,20
2019-05-03T03:52:27.851Z,20
2019-05-03T03:53:26.327Z,25
2019-05-03T03:54:25.975Z,25
2019-05-03T03:55:28.679Z,30
2019-05-03T03:56:27.983Z,30
2019-05-03T03:57:27.725Z,35
2019-05-03T03:58:35.836Z,35
2019-05-03T03:59:28.869Z,40
2019-05-03T04:00:28.255Z,40
2019-05-03T04:01:26.583Z,45
2019-05-03T04:02:28.673Z,50
2019-05-03T04:03:28.287Z,50
2019-05-03T04:04:28.357Z,55
2019-05-03T04:05:27.863Z,55
2019-05-03T04:06:26.823Z,55
2019-05-03T04:07:28.323Z,60
2019-05-03T04:08:27.653Z,60
2019-05-03T04:09:28.062Z,65
2019-05-03T04:10:26.049Z,65
2019-05-03T04:11:25.866Z,65
2019-05-03T04:12:29.127Z,65
2019-05-03T04:13:27.987Z,65
2019-05-03T04:14:27.799Z,70
2019-05-03T04:15:28.375Z,75
2019-05-03T04:16:32.897Z,75
2019-05-03T04:17:26.000Z,75
2019-05-03T04:18:28.096Z,130
2019-05-03T04:19:27.553Z,145
2019-05-03T04:20:28.154Z,120
2019-05-03T04:21:28.051Z,105
2019-05-03T04:22:27.919Z,155
2019-05-03T04:23:28.690Z,175
2019-05-03T04:24:28.198Z,150
2019-05-03T04:25:26.101Z,130
2019-05-03T04:26:31.820Z,120
2019-05-03T04:27:36.400Z,155
2019-05-03T04:28:28.054Z,190
2019-05-03T04:29:27.893Z,210
2019-05-03T04:30:28.177Z,215
2019-05-03T04:31:26.082Z,230
2019-05-03T04:32:31.549Z,240
2019-05-03T04:33:26.852Z,250
2019-05-03T04:34:26.333Z,250
2019-05-03T04:35:28.833Z,260
2019-05-03T04:36:26.159Z,220
2019-05-03T04:37:28.879Z,245
2019-05-03T04:38:28.269Z,260
2019-05-03T04:39:32.687Z,235
2019-05-03T04:40:28.258Z,180
2019-05-03T04:41:26.794Z,170
2019-05-03T04:42:27.835Z,180
2019-05-03T04:43:28.967Z,200
2019-05-03T04:44:25.976Z,235
2019-05-03T04:45:28.154Z,300
2019-05-03T04:46:28.406Z,320
2019-05-03T04:47:26.255Z,275
2019-05-03T04:48:27.742Z,315
2019-05-03T04:49:26.075Z,300
2019-05-03T04:50:28.052Z,310
2019-05-03T04:51:28.483Z,305
2019-05-03T04:52:28.401Z,310
2019-05-03T04:53:28.343Z,360
2019-05-03T04:54:27.861Z,355
2019-05-03T04:55:28.931Z,330
2019-05-03T04:56:28.473Z,310
2019-05-03T04:57:55.776Z,265
2019-05-03T04:58:28.277Z,260
2019-05-03T04:59:27.896Z,280
2019-05-03T05:00:28.257Z,295
2019-05-03T05:01:26.071Z,320
2019-05-03T05:02:28.476Z,415
2019-05-03T05:03:26.506Z,465
2019-05-03T05:04:27.871Z,415
2019-05-03T05:05:26.042Z,435
2019-05-03T05:06:25.729Z,405
2019-05-03T05:07:25.967Z,400
2019-05-03T05:08:27.776Z,395
2019-05-03T05:09:25.826Z,360
2019-05-03T05:10:25.979Z,425
2019-05-03T05:11:28.657Z,480
2019-05-03T05:12:27.651Z,365
2019-05-03T05:13:27.485Z,270
2019-05-03T05:14:25.797Z,335
2019-05-03T05:15:26.312Z,345
2019-05-03T05:16:27.586Z,490
2019-05-03T05:17:28.333Z,595
2019-05-03T05:18:26.315Z,570
2019-05-03T05:19:25.371Z,590
2019-05-03T05:20:24.838Z,630
2019-05-03T05:21:25.224Z,400
2019-05-03T05:22:27.051Z,350
2019-05-03T05:23:25.063Z,390
2019-05-03T05:24:25.523Z,660
2019-05-03T05:25:25.092Z,665
2019-05-03T05:26:24.884Z,640
2019-05-03T05:27:25.534Z,540
2019-05-03T05:28:24.958Z,740
2019-05-03T05:29:25.332Z,770
2019-05-03T05:30:25.173Z,775
2019-05-03T05:31:25.415Z,790
2019-05-03T05:32:24.723Z,770
2019-05-03T05:33:25.158Z,780
2019-05-03T05:34:26.895Z,770
2019-05-03T05:35:24.795Z,720
2019-05-03T05:36:26.751Z,780
2019-05-03T05:37:24.946Z,805
2019-05-03T05:38:25.496Z,815
2019-05-03T05:39:26.915Z,765
2019-05-03T05:40:26.980Z,365
2019-05-03T05:41:26.927Z,390
2019-05-03T05:42:25.043Z,420
2019-05-03T05:43:25.478Z,290
2019-05-03T05:44:24.815Z,265
2019-05-03T05:45:26.946Z,315
2019-05-03T05:46:24.896Z,340
2019-05-03T05:47:25.383Z,335
2019-05-03T05:48:26.967Z,465
2019-05-03T05:49:25.945Z,785
2019-05-03T05:50:25.335Z,680
2019-05-03T05:51:27.204Z,380
2019-05-03T05:52:26.943Z,730
2019-05-03T05:53:25.345Z,675
2019-05-03T05:54:24.622Z,580
2019-05-03T05:55:25.248Z,680
2019-05-03T05:56:27.390Z,650
2019-05-03T05:57:25.579Z,890
2019-05-03T05:58:27.963Z,945
2019-05-03T05:59:24.831Z,955
2019-05-03T06:00:25.654Z,960
2019-05-03T06:01:24.994Z,935
2019-05-03T06:02:25.329Z,815
2019-05-03T06:03:25.234Z,650
2019-05-03T06:04:26.935Z,920
2019-05-03T06:05:25.175Z,1040
2019-05-03T06:06:26.753Z,1030
2019-05-03T06:07:24.865Z,1045
2019-05-03T06:08:25.105Z,1035
2019-05-03T06:09:25.575Z,1070
2019-05-03T06:10:27.267Z,1095
2019-05-03T06:11:25.799Z,1115
2019-05-03T06:12:25.059Z,1100
2019-05-03T06:13:26.392Z,1105
2019-05-03T06:14:26.883Z,1120
2019-05-03T06:15:27.368Z,1190
2019-05-03T06:16:26.925Z,1225
2019-05-03T06:17:24.576Z,1215
2019-05-03T06:18:25.024Z,1225
2019-05-03T06:19:25.239Z,325
2019-05-03T06:20:26.909Z,1220
2019-05-03T06:21:25.048Z,1255
2019-05-03T06:22:25.644Z,1285
2019-05-03T06:23:24.830Z,355
2019-05-03T06:24:24.890Z,355
2019-05-03T06:25:29.008Z,1320
2019-05-03T06:26:25.382Z,1360
2019-05-03T06:27:26.806Z,940
2019-05-03T06:28:32.195Z,1350
2019-05-03T06:29:24.820Z,480
2019-05-03T06:30:24.875Z,1410
2019-05-03T06:31:30.037Z,1405
2019-05-03T06:32:25.359Z,450
2019-05-03T06:33:24.596Z,1380
2019-05-03T06:34:25.136Z,1370
2019-05-03T06:35:26.718Z,1350
2019-05-03T06:36:26.707Z,1365
2019-05-03T06:37:25.090Z,1355
2019-05-03T06:38:26.731Z,1410
2019-05-03T06:39:27.237Z,1460
2019-05-03T06:40:25.233Z,1545
2019-05-03T06:41:25.018Z,1565
2019-05-03T06:42:30.346Z,1555
2019-05-03T06:43:26.908Z,1445
2019-05-03T06:44:34.909Z,1555
2019-05-03T06:45:25.075Z,1395
2019-05-03T06:46:37.926Z,1255
2019-05-03T06:47:25.284Z,1525
2019-05-03T06:48:35.318Z,320
2019-05-03T06:49:25.478Z,305
2019-05-03T06:50:34.856Z,1645
2019-05-03T06:51:29.698Z,1620
2019-05-03T06:52:37.587Z,1460
2019-05-03T06:53:25.496Z,1585
2019-05-03T06:54:34.352Z,635
2019-05-03T06:55:24.809Z,860
2019-05-03T06:56:35.035Z,465
2019-05-03T06:57:25.312Z,1805
2019-05-03T06:58:41.391Z,1855
2019-05-03T06:59:24.912Z,1805
2019-05-03T07:00:24.900Z,1570
2019-05-03T07:01:25.273Z,415
2019-05-03T07:02:25.114Z,565
2019-05-03T07:03:25.145Z,565
2019-05-03T07:04:26.866Z,555
2019-05-03T07:05:25.151Z,535
2019-05-03T07:06:44.967Z,610
2019-05-03T07:07:28.418Z,585
2019-05-03T07:08:25.305Z,1750
2019-05-03T07:09:25.002Z,1870
2019-05-03T07:10:24.968Z,1925
2019-05-03T07:11:27.104Z,795
2019-05-03T07:12:24.994Z,1940
2019-05-03T07:13:25.430Z,1715
2019-05-03T07:14:27.041Z,435
2019-05-03T07:15:25.247Z,370
2019-05-03T07:16:25.285Z,1945
2019-05-03T07:17:24.901Z,2035
2019-05-03T07:18:27.140Z,2080
2019-05-03T07:19:25.038Z,820
2019-05-03T07:20:25.443Z,465
2019-05-03T07:21:24.841Z,455
2019-05-03T07:22:26.813Z,480
2019-05-03T07:23:26.917Z,705
2019-05-03T07:24:24.926Z,510
2019-05-03T07:25:25.535Z,455
2019-05-03T07:26:25.353Z,475
2019-05-03T07:27:27.186Z,1775
2019-05-03T07:28:24.915Z,1525
2019-05-03T07:29:25.453Z,550
2019-05-03T07:30:27.254Z,550
2019-05-03T07:31:25.468Z,450
2019-05-03T07:32:27.061Z,495
2019-05-03T07:33:25.408Z,690
2019-05-03T07:34:27.085Z,1955
2019-05-03T07:35:25.202Z,710
2019-05-03T07:36:28.495Z,1810
2019-05-03T07:37:26.947Z,480
2019-05-03T07:38:27.200Z,650
2019-05-03T07:39:26.858Z,1850
2019-05-03T07:40:25.393Z,1840
2019-05-03T07:41:28.867Z,1870
2019-05-03T07:42:25.661Z,1875
2019-05-03T07:43:26.978Z,1885
2019-05-03T07:44:25.448Z,2075
2019-05-03T07:45:25.378Z,2345
2019-05-03T07:46:27.135Z,2485
2019-05-03T07:47:27.014Z,2545
2019-05-03T07:48:25.413Z,2630
2019-05-03T07:49:25.093Z,2620
2019-05-03T07:50:25.750Z,545
2019-05-03T07:51:25.053Z,520
2019-05-03T07:52:25.822Z,2455
2019-05-03T07:53:25.266Z,2575
2019-05-03T07:54:27.251Z,1200
2019-05-03T07:55:24.987Z,895
2019-05-03T07:56:25.487Z,530
2019-05-03T07:57:28.023Z,1890
2019-05-03T07:58:25.324Z,1865
2019-05-03T07:59:25.131Z,1820
2019-05-03T08:00:25.317Z,1780
2019-05-03T08:01:25.213Z,1780
2019-05-03T08:02:29.464Z,1790
2019-05-03T08:03:26.811Z,1780
2019-05-03T08:04:25.494Z,1190
2019-05-03T08:05:27.004Z,1325
2019-05-03T08:06:27.071Z,1835
2019-05-03T08:07:32.927Z,1705
2019-05-03T08:08:25.088Z,1415
2019-05-03T08:09:26.979Z,525
2019-05-03T08:10:25.587Z,465
2019-05-03T08:11:25.010Z,565
2019-05-03T08:12:27.035Z,445
2019-05-03T08:13:25.373Z,445
2019-05-03T08:14:27.729Z,1000
2019-05-03T08:15:26.973Z,835
2019-05-03T08:16:27.608Z,645
2019-05-03T08:17:25.495Z,435
2019-05-03T08:18:25.604Z,1875
2019-05-03T08:19:29.463Z,1915
2019-05-03T08:20:27.207Z,1745
2019-05-03T08:21:25.299Z,2005
2019-05-03T08:22:25.471Z,1975
2019-05-03T08:23:40.001Z,1340
2019-05-03T08:24:27.752Z,785
2019-05-03T08:25:25.074Z,465
2019-05-03T08:26:25.610Z,435
2019-05-03T08:27:25.184Z,1005
2019-05-03T08:28:26.888Z,1770
2019-05-03T08:29:29.613Z,1380
2019-05-03T08:30:25.089Z,1880
2019-05-03T08:31:28.496Z,1880
2019-05-03T08:32:26.894Z,1935
2019-05-03T08:33:25.054Z,2020
2019-05-03T08:34:25.716Z,2020
2019-05-03T08:35:26.801Z,535
2019-05-03T08:36:27.226Z,460
2019-05-03T08:37:28.029Z,440
2019-05-03T08:38:25.710Z,415
2019-05-03T08:39:27.530Z,405
2019-05-03T08:40:27.000Z,420
2019-05-03T08:41:27.044Z,445
2019-05-03T08:42:25.462Z,475
2019-05-03T08:43:25.619Z,520
2019-05-03T08:44:27.400Z,485
2019-05-03T08:45:25.563Z,445
2019-05-03T08:46:25.424Z,455
2019-05-03T08:47:27.145Z,510
2019-05-03T08:48:27.356Z,545
2019-05-03T08:49:25.457Z,550
2019-05-03T08:50:34.704Z,510
2019-05-03T08:51:27.295Z,480
2019-05-03T08:52:27.227Z,445
2019-05-03T08:53:28.054Z,440
2019-05-03T08:54:25.512Z,490
2019-05-03T08:55:27.393Z,585
2019-05-03T08:56:27.044Z,585
2019-05-03T08:57:25.535Z,545
2019-05-03T08:58:25.529Z,550
2019-05-03T08:59:40.528Z,560
2019-05-03T09:00:25.043Z,510
2019-05-03T09:01:25.304Z,460
2019-05-03T09:02:28.276Z,425
2019-05-03T09:03:27.254Z,430
2019-05-03T09:05:24.859Z,515
2019-05-03T09:05:35.944Z,530
2019-05-03T09:06:35.439Z,570
2019-05-03T09:07:35.480Z,595
2019-05-03T09:08:35.292Z,605
2019-05-03T09:09:37.189Z,595
2019-05-03T09:10:35.185Z,575
2019-05-03T09:11:45.340Z,505
2019-05-03T09:12:36.703Z,460
2019-05-03T09:13:36.646Z,395
2019-05-03T09:14:54.593Z,355
2019-05-03T09:15:35.075Z,360
2019-05-03T09:16:35.529Z,400
2019-05-03T09:17:35.341Z,470
2019-05-03T09:18:37.405Z,555
2019-05-03T09:19:37.026Z,590
2019-05-03T09:20:38.049Z,565
2019-05-03T09:21:37.110Z,525
2019-05-03T09:22:37.189Z,505
2019-05-03T09:23:35.780Z,500
2019-05-03T09:24:35.104Z,485
2019-05-03T09:25:35.456Z,410
2019-05-03T09:26:39.644Z,340
2019-05-03T09:27:36.758Z,355
2019-05-03T09:28:39.656Z,340
2019-05-03T09:29:50.779Z,310
2019-05-03T09:30:35.680Z,305
2019-05-03T09:31:35.226Z,285
2019-05-03T09:32:37.344Z,285
2019-05-03T09:33:35.640Z,300
2019-05-03T09:34:37.432Z,300
2019-05-03T09:35:45.119Z,295
2019-05-03T09:36:36.892Z,295
2019-05-03T09:37:35.399Z,300
2019-05-03T09:38:37.378Z,310
2019-05-03T09:39:35.447Z,325
2019-05-03T09:40:35.296Z,365
2019-05-03T09:41:37.211Z,405
2019-05-03T09:42:35.204Z,400
2019-05-03T09:43:35.670Z,410
2019-05-03T09:44:35.076Z,385
2019-05-03T09:45:35.251Z,355
2019-05-03T09:46:37.840Z,335
2019-05-03T09:47:35.330Z,330
2019-05-03T09:48:37.110Z,350
2019-05-03T09:49:37.083Z,390
2019-05-03T09:50:35.822Z,425
2019-05-03T09:51:37.392Z,455
2019-05-03T09:52:37.162Z,445
2019-05-03T09:53:37.467Z,410
2019-05-03T09:54:37.105Z,390
2019-05-03T09:55:35.446Z,435
2019-05-03T09:56:37.004Z,460
2019-05-03T09:57:34.758Z,430
2019-05-03T09:58:40.401Z,430
2019-05-03T09:59:35.154Z,430
2019-05-03T10:00:34.549Z,425
2019-05-03T10:01:36.796Z,425
2019-05-03T10:02:35.272Z,405
2019-05-03T10:03:36.052Z,380
2019-05-03T10:04:36.574Z,365
2019-05-03T10:05:37.406Z,360
2019-05-03T10:06:35.926Z,360
2019-05-03T10:07:37.425Z,370
2019-05-03T10:08:35.776Z,370
2019-05-03T10:09:37.823Z,350
2019-05-03T10:10:35.662Z,345
2019-05-03T10:11:35.166Z,365
2019-05-03T10:12:35.132Z,400
2019-05-03T10:13:41.388Z,435
2019-05-03T10:14:34.250Z,475
2019-05-03T10:15:35.501Z,500
2019-05-03T10:16:35.076Z,535
2019-05-03T10:17:35.217Z,560
2019-05-03T10:18:37.276Z,550
2019-05-03T10:19:49.876Z,510
2019-05-03T10:20:34.885Z,495
2019-05-03T10:21:37.886Z,470
2019-05-03T10:22:34.923Z,460
2019-05-03T10:23:35.687Z,450
2019-05-03T10:24:35.059Z,465
2019-05-03T10:25:35.784Z,480
2019-05-03T10:26:35.560Z,460
2019-05-03T10:27:34.770Z,440
2019-05-03T10:28:34.740Z,435
2019-05-03T10:29:34.621Z,440
2019-05-03T10:30:35.393Z,445
2019-05-03T10:31:35.446Z,440
2019-05-03T10:32:35.463Z,425
2019-05-03T10:33:38.012Z,420
2019-05-03T10:34:35.663Z,425
2019-05-03T10:35:35.304Z,455
2019-05-03T10:36:35.609Z,460
2019-05-03T10:37:35.802Z,450
2019-05-03T10:38:34.363Z,460
2019-05-03T10:39:36.259Z,460
2019-05-03T10:40:35.685Z,445
2019-05-03T10:41:37.139Z,445
2019-05-03T10:42:35.268Z,475
2019-05-03T10:43:35.432Z,510
2019-05-03T10:44:35.682Z,530
2019-05-03T10:45:37.978Z,505
2019-05-03T10:46:36.832Z,460
2019-05-03T10:47:37.283Z,430
2019-05-03T10:48:35.488Z,430
2019-05-03T10:49:35.148Z,445
2019-05-03T10:50:37.185Z,455
2019-05-03T10:51:35.899Z,470
2019-05-03T10:52:38.312Z,485
2019-05-03T10:53:34.688Z,490
2019-05-03T10:54:35.754Z,490
2019-05-03T10:55:35.738Z,495
2019-05-03T10:56:38.262Z,500
2019-05-03T10:57:35.506Z,500
2019-05-03T10:58:35.632Z,500
2019-05-03T10:59:35.534Z,495
2019-05-03T11:01:01.462Z,500
2019-05-03T11:01:35.855Z,505
2019-05-03T11:02:37.443Z,510
2019-05-03T11:03:34.414Z,515
2019-05-03T11:04:35.606Z,510
2019-05-03T11:05:34.767Z,520
2019-05-03T11:06:37.685Z,540
2019-05-03T11:07:36.998Z,560
2019-05-03T11:08:34.933Z,570
2019-05-03T11:09:52.436Z,590
2019-05-03T11:10:34.662Z,600
2019-05-03T11:11:37.563Z,570
2019-05-03T11:12:37.040Z,555
2019-05-03T11:13:37.367Z,535
2019-05-03T11:14:37.483Z,515
2019-05-03T11:15:37.415Z,480
2019-05-03T11:16:37.524Z,460
2019-05-03T11:17:37.149Z,445
2019-05-03T11:18:36.971Z,425
2019-05-03T11:19:37.127Z,415
2019-05-03T11:20:41.737Z,405
2019-05-03T11:21:41.872Z,405
2019-05-03T11:22:37.238Z,405
2019-05-03T11:23:34.760Z,410
2019-05-03T11:24:37.400Z,415
2019-05-03T11:25:34.535Z,410
2019-05-03T11:26:37.286Z,425
2019-05-03T11:27:35.351Z,450
2019-05-03T11:28:35.342Z,470
2019-05-03T11:29:35.515Z,505
2019-05-03T11:30:35.553Z,530
2019-05-03T11:31:35.378Z,535
2019-05-03T11:32:35.322Z,535
2019-05-03T11:33:35.314Z,535
2019-05-03T11:34:35.425Z,535
2019-05-03T11:35:35.072Z,545
2019-05-03T11:36:37.246Z,575
2019-05-03T11:37:34.753Z,590
2019-05-03T11:38:37.290Z,600
2019-05-03T11:39:36.846Z,595
2019-05-03T11:40:36.967Z,585
2019-05-03T11:41:40.601Z,555
2019-05-03T11:42:47.322Z,515
2019-05-03T11:43:34.972Z,490
2019-05-03T11:44:36.205Z,470
2019-05-03T11:45:35.317Z,465
2019-05-03T11:46:35.443Z,475
2019-05-03T11:47:37.284Z,490
2019-05-03T11:48:37.239Z,515
2019-05-03T11:49:37.213Z,545
2019-05-03T11:50:37.048Z,565
2019-05-03T11:51:35.321Z,575
2019-05-03T11:52:37.853Z,580
2019-05-03T11:53:35.585Z,585
2019-05-03T11:54:35.868Z,585
2019-05-03T11:55:37.710Z,590
2019-05-03T11:56:35.913Z,585
2019-05-03T11:57:38.013Z,580
2019-05-03T11:58:37.063Z,570
2019-05-03T11:59:36.880Z,560
2019-05-03T12:00:34.778Z,550
2019-05-03T12:01:35.758Z,525
2019-05-03T12:02:34.279Z,500
2019-05-03T12:03:35.481Z,480
2019-05-03T12:04:35.334Z,475
2019-05-03T12:05:34.059Z,465
2019-05-03T12:06:36.615Z,465
2019-05-03T12:07:50.179Z,470
2019-05-03T12:08:34.720Z,480
2019-05-03T12:09:34.001Z,495
2019-05-03T12:11:08.196Z,495
2019-05-03T12:11:33.996Z,495
2019-05-03T12:12:37.713Z,505
2019-05-03T12:13:34.199Z,535
2019-05-03T12:14:34.601Z,560
2019-05-03T12:15:35.180Z,595
2019-05-03T12:17:34.828Z,580
2019-05-03T12:18:05.713Z,570
2019-05-03T12:19:13.868Z,540
2019-05-03T12:19:56.647Z,525
2019-05-03T12:20:55.593Z,515
2019-05-03T12:21:50.367Z,500
2019-05-03T12:22:49.705Z,525
2019-05-03T12:23:52.097Z,555
2019-05-03T12:24:50.872Z,575
2019-05-03T12:25:51.362Z,595
2019-05-03T12:26:55.780Z,590
2019-05-03T12:27:46.793Z,585
2019-05-03T12:28:47.302Z,575
2019-05-03T12:29:47.105Z,585
2019-05-03T12:30:47.275Z,590
2019-05-03T12:31:50.438Z,600
2019-05-03T12:32:44.799Z,610
2019-05-03T12:33:45.911Z,600
2019-05-03T12:34:44.866Z,570
2019-05-03T12:35:46.146Z,530
2019-05-03T12:36:51.076Z,510
2019-05-03T12:37:44.754Z,485
2019-05-03T12:38:44.790Z,475
2019-05-03T12:39:45.424Z,480
2019-05-03T12:40:45.524Z,485
2019-05-03T12:41:47.799Z,495
2019-05-03T12:42:45.534Z,500
2019-05-03T12:43:44.763Z,500
2019-05-03T12:44:46.021Z,500
2019-05-03T12:45:45.062Z,510
2019-05-03T12:46:45.090Z,520
2019-05-03T12:47:45.239Z,495
2019-05-03T12:48:44.922Z,445
2019-05-03T12:49:47.562Z,395
2019-05-03T12:50:49.152Z,365
2019-05-03T12:51:45.264Z,355
2019-05-03T12:53:00.283Z,345
2019-05-03T12:53:44.855Z,345
2019-05-03T12:54:45.346Z,335
2019-05-03T12:55:45.144Z,335
2019-05-03T12:56:47.666Z,340
2019-05-03T12:57:45.690Z,360
2019-05-03T12:58:45.678Z,385
2019-05-03T12:59:47.449Z,425
2019-05-03T13:00:48.064Z,455
2019-05-03T13:01:52.458Z,490
2019-05-03T13:02:46.989Z,515
2019-05-03T13:03:46.996Z,540
2019-05-03T13:04:47.039Z,550
2019-05-03T13:05:47.343Z,560
2019-05-03T13:06:45.328Z,565
2019-05-03T13:07:45.480Z,560
2019-05-03T13:08:45.548Z,545
2019-05-03T13:09:47.696Z,545
2019-05-03T13:10:45.323Z,540
2019-05-03T13:12:05.421Z,535
2019-05-03T13:12:58.509Z,540
2019-05-03T13:13:47.527Z,550
2019-05-03T13:14:45.352Z,580
2019-05-03T13:15:44.719Z,590
2019-05-03T13:16:46.893Z,565
2019-05-03T13:17:45.137Z,515
2019-05-03T13:18:45.713Z,475
2019-05-03T13:19:45.164Z,455
2019-05-03T13:20:47.710Z,450
2019-05-03T13:21:47.386Z,450
2019-05-03T13:22:45.692Z,445
2019-05-03T13:23:47.633Z,440
2019-05-03T13:24:45.182Z,440
2019-05-03T13:25:47.182Z,455
2019-05-03T13:26:45.646Z,460
2019-05-03T13:27:45.906Z,450
2019-05-03T13:28:45.602Z,440
2019-05-03T13:29:45.253Z,425
2019-05-03T13:30:45.234Z,415
2019-05-03T13:32:02.146Z,400
2019-05-03T13:32:45.620Z,400
2019-05-03T13:33:45.425Z,395
2019-05-03T13:34:55.280Z,400
2019-05-03T13:35:46.982Z,405
2019-05-03T13:36:45.612Z,405
2019-05-03T13:37:47.588Z,405
2019-05-03T13:38:45.294Z,405
2019-05-03T13:39:47.555Z,400
2019-05-03T13:40:47.616Z,405
2019-05-03T13:41:45.495Z,410
2019-05-03T13:43:06.531Z,435
2019-05-03T13:43:45.434Z,440
2019-05-03T13:44:47.298Z,450
2019-05-03T13:45:47.326Z,450
2019-05-03T13:46:46.984Z,435
2019-05-03T13:47:47.039Z,420
2019-05-03T13:48:57.913Z,405
2019-05-03T13:49:47.086Z,385
2019-05-03T13:50:46.925Z,365
2019-05-03T13:51:47.511Z,330
2019-05-03T13:52:45.271Z,285
2019-05-03T13:53:44.285Z,245
2019-05-03T13:54:45.944Z,220
2019-05-03T13:55:46.847Z,195
2019-05-03T13:56:44.676Z,175
2019-05-03T13:57:45.958Z,170
2019-05-03T13:58:47.029Z,165
2019-05-03T13:59:44.907Z,165